createdAt,value
2018-03-15T00:01:32.233Z,87.73
2018-03-15T00:03:59.797Z,100.70
2018-03-15T00:06:27.360Z,100.27
2018-03-15T00:11:28.717Z,87.23
2018-03-15T00:13:56.651Z,94.57
2018-03-15T00:16:24.204Z,95.10
2018-03-15T00:18:51.768Z,106.77
2018-03-15T00:21:20.949Z,86.53
2018-03-15T00:23:48.513Z,86.70
2018-03-15T00:26:16.086Z,86.47
2018-03-15T00:28:43.654Z,82.40
2018-03-15T00:31:11.213Z,86.50
2018-03-15T00:33:40.754Z,120.73
2018-03-15T00:36:08.856Z,85.87
2018-03-15T00:38:36.882Z,83.97
2018-03-15T00:41:04.450Z,81.47
2018-03-15T00:43:31.995Z,71.27
2018-03-15T00:45:59.569Z,76.73
2018-03-15T00:48:27.109Z,86.83
2018-03-15T00:50:55.498Z,71.73
2018-03-15T00:53:23.065Z,85.13
2018-03-15T00:55:50.870Z,79.50
2018-03-15T00:58:19.088Z,102.23
2018-03-15T01:00:46.673Z,74.70
2018-03-15T01:03:15.187Z,76.80
2018-03-15T01:05:42.770Z,84.87
2018-03-15T01:08:18.026Z,70.97
2018-03-15T01:10:45.609Z,85.23
2018-03-15T01:13:13.148Z,85.37
2018-03-15T01:15:42.270Z,91.40
2018-03-15T01:18:09.851Z,76.07
2018-03-15T01:20:37.401Z,84.10
2018-03-15T01:23:05.724Z,79.13
2018-03-15T01:25:33.268Z,63.67
2018-03-15T01:28:02.741Z,73.60
2018-03-15T01:30:30.290Z,56.13
2018-03-15T01:32:57.849Z,63.23
2018-03-15T01:35:25.388Z,62.27
2018-03-15T01:37:54.333Z,78.20
2018-03-15T01:40:21.878Z,62.43
2018-03-15T01:42:49.492Z,65.00
2018-03-15T01:45:17.637Z,59.13
2018-03-15T01:47:45.489Z,59.17
2018-03-15T01:50:13.836Z,55.93
2018-03-15T01:52:42.897Z,58.23
2018-03-15T01:55:10.466Z,52.47
2018-03-15T01:57:38.769Z,46.77
2018-03-15T02:00:08.213Z,43.43
2018-03-15T02:02:35.768Z,56.13
2018-03-15T02:05:04.992Z,42.33
2018-03-15T02:07:32.538Z,50.63
2018-03-15T02:10:00.101Z,44.07
2018-03-15T02:12:29.990Z,47.93
2018-03-15T02:14:57.570Z,48.13
2018-03-15T02:17:25.108Z,40.70
2018-03-15T02:19:55.675Z,37.43
2018-03-15T02:22:23.249Z,47.67
2018-03-15T02:24:50.803Z,47.77
2018-03-15T02:27:18.382Z,39.93
2018-03-15T02:29:45.919Z,39.87
2018-03-15T02:32:14.973Z,45.57
2018-03-15T02:34:42.518Z,50.33
2018-03-15T02:37:10.077Z,49.77
2018-03-15T02:39:37.622Z,44.00
2018-03-15T02:42:07.009Z,44.40
2018-03-15T02:44:34.549Z,40.77
2018-03-15T02:47:05.346Z,44.27
2018-03-15T02:49:33.661Z,41.37
2018-03-15T02:52:02.793Z,39.73
2018-03-15T02:54:30.346Z,39.60
2018-03-15T02:56:57.886Z,40.67
2018-03-15T02:59:25.459Z,32.77
2018-03-15T03:01:53.014Z,38.43
2018-03-15T03:04:20.578Z,42.43
2018-03-15T03:06:48.117Z,35.03
2018-03-15T03:09:18.098Z,31.77
2018-03-15T03:11:45.639Z,36.63
2018-03-15T03:14:13.197Z,39.93
2018-03-15T03:16:40.732Z,36.53
2018-03-15T03:19:08.293Z,37.73
2018-03-15T03:21:35.831Z,33.27
2018-03-15T03:24:03.390Z,38.47
2018-03-15T03:26:30.927Z,37.90
2018-03-15T03:28:58.508Z,38.23
2018-03-15T03:31:27.109Z,35.77
2018-03-15T03:33:54.649Z,37.17
2018-03-15T03:36:23.692Z,42.63
2018-03-15T03:38:51.234Z,41.90
2018-03-15T03:41:18.793Z,39.90
2018-03-15T03:43:47.400Z,39.00
2018-03-15T03:46:14.966Z,32.83
2018-03-15T03:48:42.513Z,36.73
2018-03-15T03:51:11.537Z,39.40
2018-03-15T03:53:47.218Z,38.43
2018-03-15T03:56:14.783Z,48.90
2018-03-15T03:58:42.338Z,47.43
2018-03-15T04:01:09.902Z,50.20
2018-03-15T04:03:47.119Z,51.60
2018-03-15T04:06:14.673Z,55.40
2018-03-15T04:08:42.213Z,45.37
2018-03-15T04:11:09.778Z,44.50
2018-03-15T04:13:37.325Z,46.97
2018-03-15T04:16:04.910Z,40.60
2018-03-15T04:18:32.454Z,47.37
2018-03-15T04:21:00.000Z,37.00
2018-03-15T04:23:29.364Z,41.30
2018-03-15T04:25:56.900Z,42.10
2018-03-15T04:28:34.230Z,35.20
2018-03-15T04:31:01.778Z,40.57
2018-03-15T04:33:29.350Z,36.53
2018-03-15T04:35:56.917Z,44.83
2018-03-15T04:38:24.479Z,36.90
2018-03-15T04:40:52.788Z,33.90
2018-03-15T04:43:23.298Z,29.20
2018-03-15T04:45:50.841Z,37.33
2018-03-15T04:48:19.750Z,32.20
2018-03-15T04:50:47.294Z,29.40
2018-03-15T04:53:14.848Z,30.27
2018-03-15T04:55:42.426Z,32.73
2018-03-15T04:58:10.005Z,35.60
2018-03-15T05:00:37.634Z,37.40
2018-03-15T05:03:05.945Z,41.90
2018-03-15T05:05:37.122Z,37.37
2018-03-15T05:08:04.679Z,40.10
2018-03-15T05:10:32.242Z,40.43
2018-03-15T05:12:59.793Z,41.47
2018-03-15T05:15:27.352Z,42.00
2018-03-15T05:17:54.892Z,42.27
2018-03-15T05:20:23.566Z,46.37
2018-03-15T05:22:51.108Z,43.47
2018-03-15T05:25:19.778Z,51.97
2018-03-15T05:27:47.325Z,44.17
2018-03-15T05:30:14.856Z,40.03
2018-03-15T05:32:42.441Z,43.00
2018-03-15T05:37:44.108Z,48.57
2018-03-15T05:40:11.706Z,45.10
2018-03-15T05:42:39.265Z,45.60
2018-03-15T05:45:07.583Z,42.93
2018-03-15T05:47:35.142Z,53.33
2018-03-15T05:50:03.445Z,47.03
2018-03-15T05:52:31.007Z,43.13
2018-03-15T05:54:59.312Z,50.73
2018-03-15T05:57:26.872Z,52.87
2018-03-15T05:59:57.721Z,46.67
2018-03-15T06:02:25.294Z,39.60
2018-03-15T06:04:52.843Z,44.47
2018-03-15T06:07:21.156Z,41.17
2018-03-15T06:09:48.712Z,42.40
2018-03-15T06:12:17.951Z,40.87
2018-03-15T06:14:48.122Z,43.63
2018-03-15T06:17:15.702Z,36.70
2018-03-15T06:19:43.262Z,33.80
2018-03-15T06:22:10.814Z,35.70
2018-03-15T06:24:38.377Z,32.93
2018-03-15T06:27:08.079Z,32.30
2018-03-15T06:29:44.001Z,32.50
2018-03-15T06:32:11.546Z,28.63
2018-03-15T06:34:39.109Z,28.67
2018-03-15T06:37:06.652Z,29.63
2018-03-15T06:39:34.252Z,25.93
2018-03-15T06:42:03.454Z,27.93
2018-03-15T06:44:30.999Z,24.30
2018-03-15T06:46:58.571Z,29.57
2018-03-15T06:49:26.881Z,31.17
2018-03-15T06:51:54.441Z,29.60
2018-03-15T06:54:22.709Z,27.53
2018-03-15T06:56:51.022Z,34.07
2018-03-15T06:59:18.586Z,26.97
2018-03-15T07:01:46.950Z,29.73
2018-03-15T07:04:14.496Z,24.60
2018-03-15T07:06:42.047Z,23.90
2018-03-15T07:09:09.576Z,29.00
2018-03-15T07:11:38.896Z,29.47
2018-03-15T07:14:06.490Z,31.27
2018-03-15T07:16:34.057Z,22.93
2018-03-15T07:19:02.357Z,27.80
2018-03-15T07:21:31.050Z,26.93
2018-03-15T07:23:59.361Z,37.93
2018-03-15T07:26:28.762Z,27.00
2018-03-15T07:28:56.311Z,21.87
2018-03-15T07:31:24.639Z,22.00
2018-03-15T07:33:52.171Z,27.93
2018-03-15T07:36:21.470Z,25.37
2018-03-15T07:38:49.031Z,24.20
2018-03-15T07:41:17.021Z,24.20
2018-03-15T07:43:44.584Z,27.27
2018-03-15T07:46:12.157Z,28.77
2018-03-15T07:48:39.721Z,30.33
2018-03-15T07:51:08.972Z,31.80
2018-03-15T07:53:36.542Z,23.63
2018-03-15T07:56:04.856Z,23.10
2018-03-15T07:58:32.421Z,25.37
2018-03-15T08:01:01.497Z,24.47
2018-03-15T08:03:29.086Z,23.73
2018-03-15T08:05:57.409Z,24.10
2018-03-15T08:08:25.027Z,21.10
2018-03-15T08:10:52.565Z,21.50
2018-03-15T08:13:20.106Z,21.73
2018-03-15T08:15:47.686Z,21.30
2018-03-15T08:18:15.230Z,24.33
2018-03-15T08:20:42.781Z,19.40
2018-03-15T08:23:10.321Z,20.57
2018-03-15T08:25:37.872Z,27.27
2018-03-15T08:28:08.248Z,23.93
2018-03-15T08:30:35.806Z,20.23
2018-03-15T08:33:05.616Z,25.30
2018-03-15T08:35:33.191Z,21.00
2018-03-15T08:38:00.728Z,22.30
2018-03-15T08:40:30.236Z,27.87
2018-03-15T08:42:57.786Z,24.90
2018-03-15T08:45:25.345Z,21.03
2018-03-15T08:47:52.896Z,20.83
2018-03-15T08:50:20.448Z,19.80
2018-03-15T08:52:48.689Z,22.20
2018-03-15T08:55:16.252Z,17.50
2018-03-15T08:57:43.787Z,21.20
2018-03-15T09:00:11.391Z,23.57
2018-03-15T09:02:38.908Z,21.93
2018-03-15T09:05:07.212Z,20.60
2018-03-15T09:07:35.046Z,23.47
2018-03-15T09:10:02.653Z,19.60
2018-03-15T09:12:30.222Z,29.60
2018-03-15T09:14:57.781Z,18.90
2018-03-15T09:17:26.104Z,21.77
2018-03-15T09:19:53.647Z,24.27
2018-03-15T09:22:21.955Z,17.83
2018-03-15T09:24:49.501Z,20.40
2018-03-15T09:27:17.956Z,15.47
2018-03-15T09:29:45.540Z,15.80
2018-03-15T09:32:13.867Z,20.67
2018-03-15T09:34:41.427Z,19.23
2018-03-15T09:37:09.019Z,24.70
2018-03-15T09:39:36.571Z,18.77
2018-03-15T09:42:05.069Z,19.60
2018-03-15T09:44:32.674Z,23.47
2018-03-15T09:47:00.240Z,24.67
2018-03-15T09:49:27.819Z,20.90
2018-03-15T09:51:55.372Z,20.07
2018-03-15T09:54:22.969Z,24.27
2018-03-15T09:56:50.550Z,13.77
2018-03-15T09:59:18.124Z,19.27
2018-03-15T10:01:45.737Z,23.57
2018-03-15T10:04:13.320Z,15.90
2018-03-15T10:06:40.868Z,19.20
2018-03-15T10:09:09.213Z,24.50
2018-03-15T10:11:38.583Z,19.93
2018-03-15T10:14:06.165Z,16.00
2018-03-15T10:16:33.724Z,18.53
2018-03-15T10:19:02.048Z,15.83
2018-03-15T10:21:29.607Z,20.17
2018-03-15T10:23:57.173Z,16.00
2018-03-15T10:26:24.752Z,16.57
2018-03-15T10:28:52.316Z,16.07
2018-03-15T10:31:19.897Z,18.63
2018-03-15T10:33:48.817Z,21.13
2018-03-15T10:36:16.405Z,18.37
2018-03-15T10:38:44.742Z,19.33
2018-03-15T10:41:12.371Z,24.97
2018-03-15T10:43:39.936Z,19.57
2018-03-15T10:46:07.542Z,18.70
2018-03-15T10:48:35.895Z,18.90
2018-03-15T10:51:03.505Z,32.27
2018-03-15T10:53:31.827Z,21.97
2018-03-15T10:55:59.421Z,24.20
2018-03-15T10:58:27.075Z,18.80
2018-03-15T11:01:00.208Z,21.73
2018-03-15T11:03:33.436Z,16.63
2018-03-15T11:06:06.555Z,14.83
2018-03-15T11:08:35.779Z,19.03
2018-03-15T11:11:12.071Z,20.90
2018-03-15T11:13:39.635Z,19.00
2018-03-15T11:16:07.216Z,20.70
2018-03-15T11:18:34.802Z,18.07
2018-03-15T11:21:02.400Z,14.97
2018-03-15T11:23:29.963Z,22.17
2018-03-15T11:25:57.518Z,13.13
2018-03-15T11:28:25.092Z,11.90
2018-03-15T11:30:52.641Z,20.20
2018-03-15T11:33:20.228Z,14.80
2018-03-15T11:35:47.797Z,19.30
2018-03-15T11:38:15.386Z,15.67
2018-03-15T11:40:42.932Z,13.60
2018-03-15T11:43:10.514Z,17.40
2018-03-15T11:45:38.077Z,18.63
2018-03-15T11:48:05.656Z,14.37
2018-03-15T11:50:33.207Z,15.13
2018-03-15T11:53:01.548Z,16.20
2018-03-15T11:55:29.113Z,14.00
2018-03-15T11:57:57.253Z,13.70
2018-03-15T12:00:24.821Z,15.00
2018-03-15T12:02:53.157Z,17.83
2018-03-15T12:05:20.720Z,16.57
2018-03-15T12:07:48.320Z,14.20
2018-03-15T12:10:16.097Z,12.63
2018-03-15T12:12:43.665Z,12.13
2018-03-15T12:15:12.016Z,16.50
2018-03-15T12:17:39.573Z,14.23
2018-03-15T12:20:07.900Z,15.30
2018-03-15T12:22:35.444Z,17.73
2018-03-15T12:25:03.000Z,19.10
2018-03-15T12:27:31.305Z,15.73
2018-03-15T12:29:59.634Z,16.40
2018-03-15T12:32:27.185Z,19.43
2018-03-15T12:34:54.797Z,16.80
2018-03-15T12:37:22.369Z,20.03
2018-03-15T12:39:49.929Z,10.33
2018-03-15T12:42:17.481Z,14.37
2018-03-15T12:44:45.032Z,12.73
2018-03-15T12:47:13.337Z,16.13
2018-03-15T12:49:40.898Z,19.20
2018-03-15T12:52:08.444Z,19.43
2018-03-15T12:54:35.991Z,15.43
2018-03-15T12:57:03.563Z,13.57
2018-03-15T12:59:31.104Z,19.80
2018-03-15T13:01:58.661Z,14.50
2018-03-15T13:04:26.200Z,16.13
2018-03-15T13:06:53.755Z,16.37
2018-03-15T13:09:21.313Z,14.57
2018-03-15T13:11:48.896Z,17.43
2018-03-15T13:14:16.436Z,12.37
2018-03-15T13:16:43.989Z,14.33
2018-03-15T13:19:11.537Z,15.73
2018-03-15T13:21:39.856Z,16.57
2018-03-15T13:24:07.412Z,17.00
2018-03-15T13:26:35.743Z,15.83
2018-03-15T13:29:03.279Z,16.43
2018-03-15T13:31:30.837Z,14.90
2018-03-15T13:33:59.145Z,18.47
2018-03-15T13:36:26.694Z,24.43
2018-03-15T13:38:55.029Z,17.70
2018-03-15T13:41:24.097Z,15.20
2018-03-15T13:43:52.445Z,19.77
2018-03-15T13:46:19.996Z,15.43
2018-03-15T13:48:48.069Z,21.20
2018-03-15T13:51:15.614Z,14.80
2018-03-15T13:53:43.961Z,17.40
2018-03-15T13:56:11.515Z,13.83
2018-03-15T13:58:39.081Z,17.03
2018-03-15T14:01:06.619Z,17.10
2018-03-15T14:03:34.945Z,18.83
2018-03-15T14:06:02.503Z,18.13
2018-03-15T14:08:30.055Z,15.27
2018-03-15T14:10:57.620Z,15.73
2018-03-15T14:13:26.846Z,17.40
2018-03-15T14:15:55.153Z,15.10
2018-03-15T14:18:22.736Z,19.57
2018-03-15T14:20:50.280Z,14.00
2018-03-15T14:23:18.596Z,23.73
2018-03-15T14:25:46.155Z,14.97
2018-03-15T14:28:13.738Z,16.43
2018-03-15T14:30:41.298Z,19.03
2018-03-15T14:33:08.841Z,18.40
2018-03-15T14:35:37.165Z,19.87
2018-03-15T14:38:04.726Z,12.47
2018-03-15T14:40:32.293Z,17.23
2018-03-15T14:42:59.851Z,15.30
2018-03-15T14:45:28.163Z,22.53
2018-03-15T14:47:55.701Z,18.60
2018-03-15T14:50:24.027Z,15.07
2018-03-15T14:52:51.566Z,16.47
2018-03-15T14:55:19.160Z,16.10
2018-03-15T14:57:46.695Z,21.93
2018-03-15T15:00:14.256Z,16.50
2018-03-15T15:02:41.795Z,17.87
2018-03-15T15:05:09.376Z,17.87
2018-03-15T15:07:36.950Z,19.63
2018-03-15T15:10:04.503Z,16.40
2018-03-15T15:12:32.051Z,14.90
2018-03-15T15:15:00.358Z,17.70
2018-03-15T15:17:27.922Z,17.80
2018-03-15T15:19:55.456Z,17.77
2018-03-15T15:22:23.008Z,14.93
2018-03-15T15:24:50.541Z,19.40
2018-03-15T15:27:18.883Z,15.83
2018-03-15T15:29:46.425Z,16.60
2018-03-15T15:32:14.915Z,21.03
2018-03-15T15:34:42.528Z,19.70
2018-03-15T15:37:10.084Z,14.03
2018-03-15T15:39:37.624Z,13.40
2018-03-15T15:42:05.185Z,13.50
2018-03-15T15:44:32.720Z,13.07
2018-03-15T15:47:00.281Z,14.40
2018-03-15T15:49:27.826Z,15.97
2018-03-15T15:51:55.376Z,13.70
2018-03-15T15:54:22.913Z,15.23
2018-03-15T15:56:50.489Z,14.60
2018-03-15T15:59:18.034Z,13.23
2018-03-15T16:01:45.578Z,13.00
2018-03-15T16:04:13.146Z,13.83
2018-03-15T16:06:40.675Z,12.90
2018-03-15T16:09:08.457Z,9.10
2018-03-15T16:11:36.765Z,10.43
2018-03-15T16:14:04.339Z,11.30
2018-03-15T16:16:31.875Z,11.43
2018-03-15T16:18:59.433Z,9.80
2018-03-15T16:21:26.969Z,20.13
2018-03-15T16:23:54.550Z,10.70
2018-03-15T16:26:22.086Z,7.70
2018-03-15T16:28:50.405Z,9.90
2018-03-15T16:31:17.990Z,12.57
2018-03-15T16:33:45.519Z,10.80
2018-03-15T16:36:13.080Z,8.50
2018-03-15T16:38:41.405Z,7.83
2018-03-15T16:41:08.936Z,13.37
2018-03-15T16:43:36.508Z,13.67
2018-03-15T16:46:04.820Z,10.73
2018-03-15T16:48:33.133Z,9.87
2018-03-15T16:51:00.678Z,11.70
2018-03-15T16:53:29.002Z,11.03
2018-03-15T16:55:57.317Z,14.40
2018-03-15T16:58:24.885Z,13.60
2018-03-15T17:00:52.465Z,16.03
2018-03-15T17:03:19.996Z,11.20
2018-03-15T17:05:47.564Z,18.40
2018-03-15T17:08:15.091Z,9.33
2018-03-15T17:10:42.631Z,9.03
2018-03-15T17:13:10.172Z,10.70
2018-03-15T17:15:37.723Z,8.37
2018-03-15T17:18:06.019Z,11.87
2018-03-15T17:20:34.340Z,13.80
2018-03-15T17:23:01.884Z,11.60
2018-03-15T17:25:29.440Z,13.30
2018-03-15T17:27:57.750Z,21.73
2018-03-15T17:30:25.312Z,13.20
2018-03-15T17:32:52.880Z,18.20
2018-03-15T17:35:21.209Z,16.37
2018-03-15T17:37:48.745Z,12.77
2018-03-15T17:40:17.076Z,12.97
2018-03-15T17:42:44.677Z,14.47
2018-03-15T17:45:12.191Z,12.90
2018-03-15T17:47:39.778Z,16.50
2018-03-15T17:50:07.340Z,14.87
2018-03-15T17:52:34.901Z,14.13
2018-03-15T17:55:02.449Z,15.57
2018-03-15T17:57:30.023Z,22.03
2018-03-15T17:59:58.394Z,14.50
2018-03-15T18:02:25.944Z,15.87
2018-03-15T18:04:53.494Z,16.37
2018-03-15T18:07:21.048Z,16.30
2018-03-15T18:09:49.348Z,13.43
2018-03-15T18:12:16.922Z,16.87
2018-03-15T18:14:44.461Z,16.93
2018-03-15T18:17:12.027Z,16.40
2018-03-15T18:19:39.551Z,13.90
2018-03-15T18:22:07.083Z,18.07
2018-03-15T18:24:34.636Z,14.50
2018-03-15T18:27:02.174Z,12.70
2018-03-15T18:29:29.732Z,13.00
2018-03-15T18:31:57.329Z,16.13
2018-03-15T18:34:24.905Z,14.83
2018-03-15T18:36:52.472Z,18.50
2018-03-15T18:39:20.057Z,19.63
2018-03-15T18:41:47.599Z,17.90
2018-03-15T18:44:16.485Z,18.20
2018-03-15T18:46:44.790Z,23.23
2018-03-15T18:49:12.339Z,25.73
2018-03-15T18:51:40.682Z,20.70
2018-03-15T18:54:08.249Z,27.90
2018-03-15T18:56:35.800Z,25.87
2018-03-15T18:59:03.384Z,20.30
2018-03-15T19:01:30.911Z,21.43
2018-03-15T19:03:58.477Z,23.00
2018-03-15T19:06:26.017Z,22.60
2018-03-15T19:08:56.283Z,20.53
2018-03-15T19:11:23.874Z,24.27
2018-03-15T19:13:52.183Z,24.87
2018-03-15T19:16:19.815Z,18.30
2018-03-15T19:18:48.163Z,22.47
2018-03-15T19:21:15.721Z,24.03
2018-03-15T19:23:43.265Z,26.10
2018-03-15T19:26:11.583Z,27.53
2018-03-15T19:28:39.126Z,22.93
2018-03-15T19:31:07.453Z,23.70
2018-03-15T19:33:34.988Z,25.60
2018-03-15T19:36:03.306Z,24.33
2018-03-15T19:38:30.853Z,25.00
2018-03-15T19:40:59.240Z,27.70
2018-03-15T19:43:27.541Z,30.40
2018-03-15T19:45:55.111Z,27.57
2018-03-15T19:48:22.692Z,32.87
2018-03-15T19:50:50.233Z,31.23
2018-03-15T19:53:17.826Z,29.27
2018-03-15T19:55:45.363Z,36.20
2018-03-15T19:58:12.928Z,29.57
2018-03-15T20:00:40.464Z,27.67
2018-03-15T20:03:08.017Z,54.17
2018-03-15T20:05:35.557Z,38.47
2018-03-15T20:08:03.154Z,30.00
2018-03-15T20:10:30.704Z,39.03
2018-03-15T20:12:58.267Z,31.73
2018-03-15T20:15:26.264Z,34.10
2018-03-15T20:17:54.577Z,38.80
2018-03-15T20:20:22.145Z,35.33
2018-03-15T20:26:00.721Z,33.60
2018-03-15T20:28:34.033Z,34.17
2018-03-15T20:31:01.616Z,38.60
2018-03-15T20:33:34.901Z,37.80
2018-03-15T20:36:02.421Z,30.03
2018-03-15T20:38:29.964Z,39.70
2018-03-15T20:41:03.171Z,37.03
2018-03-15T20:43:30.722Z,38.83
2018-03-15T20:46:03.890Z,36.10
2018-03-15T20:48:37.120Z,34.37
2018-03-15T20:51:04.680Z,37.80
2018-03-15T20:53:33.037Z,33.80
2018-03-15T20:56:00.633Z,35.87
2018-03-15T20:58:28.232Z,32.70
2018-03-15T21:00:55.809Z,31.73
2018-03-15T21:03:23.392Z,39.33
2018-03-15T21:05:50.957Z,42.63
2018-03-15T21:08:19.465Z,34.93
2018-03-15T21:10:47.003Z,43.30
2018-03-15T21:13:14.586Z,42.30
2018-03-15T21:15:42.134Z,43.00
2018-03-15T21:18:10.477Z,39.67
2018-03-15T21:20:38.025Z,38.80
2018-03-15T21:23:05.605Z,39.57
2018-03-15T21:25:33.180Z,43.10
2018-03-15T21:30:34.311Z,42.80
2018-03-15T21:33:01.884Z,41.53
2018-03-15T21:35:29.439Z,35.30
2018-03-15T21:37:57.053Z,47.60
2018-03-15T21:40:24.605Z,40.77
2018-03-15T21:42:52.173Z,47.37
2018-03-15T21:45:19.726Z,45.73
2018-03-15T21:47:47.290Z,48.07
2018-03-15T21:50:14.834Z,41.30
2018-03-15T21:52:42.414Z,46.50
2018-03-15T21:55:09.956Z,36.20
2018-03-15T21:57:37.502Z,43.53
2018-03-15T22:00:05.829Z,44.77
2018-03-15T22:02:33.376Z,45.87
2018-03-15T22:05:00.954Z,44.57
2018-03-15T22:07:29.266Z,46.93
2018-03-15T22:09:56.870Z,50.50
2018-03-15T22:12:24.464Z,44.13
2018-03-15T22:17:25.834Z,44.73
2018-03-15T22:19:53.439Z,50.47
2018-03-15T22:22:21.747Z,46.23
2018-03-15T22:24:49.339Z,45.47
2018-03-15T22:27:16.884Z,44.73
2018-03-15T22:29:45.356Z,41.50
2018-03-15T22:32:12.920Z,45.83
2018-03-15T22:34:40.477Z,39.03
2018-03-15T22:37:08.045Z,44.00
2018-03-15T22:39:35.598Z,41.30
2018-03-15T22:42:03.182Z,42.87
2018-03-15T22:44:30.722Z,37.63
2018-03-15T22:46:58.280Z,35.77
2018-03-15T22:49:26.854Z,43.73
2018-03-15T22:51:54.532Z,40.43
2018-03-15T22:54:22.853Z,39.80
2018-03-15T22:56:50.419Z,36.30
2018-03-15T22:59:17.961Z,37.67
2018-03-15T23:01:45.529Z,37.93
2018-03-15T23:04:13.075Z,37.07
2018-03-15T23:06:41.412Z,37.73
2018-03-15T23:09:09.726Z,40.43
2018-03-15T23:11:37.275Z,41.30
2018-03-15T23:14:05.602Z,38.20
2018-03-15T23:16:33.144Z,37.90
2018-03-15T23:19:00.696Z,37.47
2018-03-15T23:21:29.002Z,38.10
2018-03-15T23:23:56.559Z,36.33
2018-03-15T23:26:25.785Z,35.00
2018-03-15T23:28:53.345Z,31.37
2018-03-15T23:31:21.666Z,36.87
2018-03-15T23:33:49.253Z,34.93
2018-03-15T23:36:16.822Z,31.43
2018-03-15T23:38:44.364Z,36.40
2018-03-15T23:41:11.920Z,37.30
2018-03-15T23:43:40.230Z,33.43
2018-03-15T23:46:08.109Z,29.10
2018-03-15T23:48:35.669Z,28.30
2018-03-15T23:51:03.988Z,32.27
2018-03-15T23:53:31.528Z,31.50
2018-03-15T23:55:59.865Z,30.00
2018-03-15T23:58:27.431Z,34.53
